sensor_id;sensor_type;location;lat;lon;timestamp;pressure;altitude;pressure_sealevel;temperature;humidity
4576;BME280;2300;51.874;8.430;2022-11-15T00:00:17;100232.47;;;9.33;81.47
4576;BME280;2300;51.874;8.430;2022-11-15T00:02:44;100224.72;;;9.30;81.63
4576;BME280;2300;51.874;8.430;2022-11-15T00:05:10;100234.97;;;9.34;81.68
4576;BME280;2300;51.874;8.430;2022-11-15T00:07:37;100232.72;;;9.43;80.58
4576;BME280;2300;51.874;8.430;2022-11-15T00:10:04;100232.22;;;9.34;81.36
4576;BME280;2300;51.874;8.430;2022-11-15T00:12:31;100233.53;;;9.32;80.98
4576;BME280;2300;51.874;8.430;2022-11-15T00:14:57;100229.16;;;9.42;81.36
4576;BME280;2300;51.874;8.430;2022-11-15T00:17:25;100216.03;;;9.44;80.84
4576;BME280;2300;51.874;8.430;2022-11-15T00:19:52;100219.28;;;9.53;81.62
4576;BME280;2300;51.874;8.430;2022-11-15T00:22:18;100222.59;;;9.55;80.93
4576;BME280;2300;51.874;8.430;2022-11-15T00:24:45;100220.34;;;9.52;81.05
4576;BME280;2300;51.874;8.430;2022-11-15T00:27:11;100220.13;;;9.53;81.14
4576;BME280;2300;51.874;8.430;2022-11-15T00:29:38;100224.06;;;9.57;80.91
4576;BME280;2300;51.874;8.430;2022-11-15T00:32:08;100227.13;;;9.61;81.67
4576;BME280;2300;51.874;8.430;2022-11-15T00:34:36;100216.41;;;9.59;81.22
4576;BME280;2300;51.874;8.430;2022-11-15T00:37:03;100223.69;;;9.66;82.02
4576;BME280;2300;51.874;8.430;2022-11-15T00:39:29;100213.31;;;9.68;81.57
4576;BME280;2300;51.874;8.430;2022-11-15T00:41:56;100209.03;;;9.72;81.91
4576;BME280;2300;51.874;8.430;2022-11-15T00:44:22;100209.63;;;9.74;81.71
4576;BME280;2300;51.874;8.430;2022-11-15T00:46:49;100209.75;;;9.79;81.94
4576;BME280;2300;51.874;8.430;2022-11-15T00:49:16;100214.63;;;9.77;82.42
4576;BME280;2300;51.874;8.430;2022-11-15T00:51:43;100207.47;;;9.76;82.08
4576;BME280;2300;51.874;8.430;2022-11-15T00:54:10;100194.03;;;9.74;82.49
4576;BME280;2300;51.874;8.430;2022-11-15T00:56:37;100199.25;;;9.76;83.29
4576;BME280;2300;51.874;8.430;2022-11-15T00:59:03;100190.91;;;9.71;84.11
4576;BME280;2300;51.874;8.430;2022-11-15T01:01:30;100193.53;;;9.77;83.90
4576;BME280;2300;51.874;8.430;2022-11-15T01:03:57;100194.38;;;9.78;83.40
4576;BME280;2300;51.874;8.430;2022-11-15T01:06:23;100185.31;;;9.77;83.80
4576;BME280;2300;51.874;8.430;2022-11-15T01:08:51;100186.38;;;9.76;84.33
4576;BME280;2300;51.874;8.430;2022-11-15T01:11:18;100179.22;;;9.75;84.70
4576;BME280;2300;51.874;8.430;2022-11-15T01:13:44;100168.50;;;9.74;84.73
4576;BME280;2300;51.874;8.430;2022-11-15T01:16:13;100174.09;;;9.79;85.55
4576;BME280;2300;51.874;8.430;2022-11-15T01:18:40;100167.06;;;9.83;85.54
4576;BME280;2300;51.874;8.430;2022-11-15T01:21:09;100159.69;;;9.83;85.51
4576;BME280;2300;51.874;8.430;2022-11-15T01:23:36;100162.16;;;9.85;85.97
4576;BME280;2300;51.874;8.430;2022-11-15T01:26:06;100140.81;;;9.87;86.03
4576;BME280;2300;51.874;8.430;2022-11-15T01:28:35;100152.41;;;9.89;86.10
4576;BME280;2300;51.874;8.430;2022-11-15T01:31:04;100143.31;;;10.00;85.95
4576;BME280;2300;51.874;8.430;2022-11-15T01:33:33;100147.84;;;9.94;85.79
4576;BME280;2300;51.874;8.430;2022-11-15T01:36:03;100140.69;;;9.93;85.79
4576;BME280;2300;51.874;8.430;2022-11-15T01:38:30;100146.09;;;9.77;86.45
4576;BME280;2300;51.874;8.430;2022-11-15T01:40:56;100159.09;;;9.58;87.37
4576;BME280;2300;51.874;8.430;2022-11-15T01:43:26;100143.22;;;9.60;87.99
4576;BME280;2300;51.874;8.430;2022-11-15T01:45:56;100135.00;;;9.48;88.16
4576;BME280;2300;51.874;8.430;2022-11-15T01:48:28;100146.69;;;9.55;88.72
4576;BME280;2300;51.874;8.430;2022-11-15T01:50:58;100136.44;;;9.51;89.52
4576;BME280;2300;51.874;8.430;2022-11-15T01:53:26;100136.44;;;9.63;89.34
4576;BME280;2300;51.874;8.430;2022-11-15T01:55:53;100146.81;;;9.61;89.68
4576;BME280;2300;51.874;8.430;2022-11-15T01:58:20;100133.81;;;9.68;89.12
4576;BME280;2300;51.874;8.430;2022-11-15T02:00:49;100144.41;;;9.76;88.96
4576;BME280;2300;51.874;8.430;2022-11-15T02:03:16;100132.88;;;9.74;89.27
4576;BME280;2300;51.874;8.430;2022-11-15T02:05:43;100127.97;;;9.76;89.32
4576;BME280;2300;51.874;8.430;2022-11-15T02:08:10;100122.13;;;9.84;89.90
4576;BME280;2300;51.874;8.430;2022-11-15T02:10:45;100128.19;;;9.86;90.01
4576;BME280;2300;51.874;8.430;2022-11-15T02:13:11;100134.16;;;9.83;89.92
4576;BME280;2300;51.874;8.430;2022-11-15T02:15:43;100119.81;;;9.92;90.73
4576;BME280;2300;51.874;8.430;2022-11-15T02:18:22;100133.88;;;9.96;90.70
4576;BME280;2300;51.874;8.430;2022-11-15T02:21:07;100131.63;;;9.93;90.67
4576;BME280;2300;51.874;8.430;2022-11-15T02:23:55;100133.72;;;10.14;90.88
4576;BME280;2300;51.874;8.430;2022-11-15T02:30:03;100125.84;;;10.18;90.75
4576;BME280;2300;51.874;8.430;2022-11-15T02:32:35;100105.47;;;10.14;91.50
4576;BME280;2300;51.874;8.430;2022-11-15T02:35:12;100120.03;;;10.26;91.30
4576;BME280;2300;51.874;8.430;2022-11-15T02:37:45;100121.19;;;10.30;90.98
4576;BME280;2300;51.874;8.430;2022-11-15T02:40:23;100128.69;;;10.34;91.30
4576;BME280;2300;51.874;8.430;2022-11-15T02:42:56;100121.16;;;10.41;90.89
4576;BME280;2300;51.874;8.430;2022-11-15T02:45:45;100086.81;;;10.27;90.76
4576;BME280;2300;51.874;8.430;2022-11-15T02:48:14;100119.56;;;10.46;91.64
4576;BME280;2300;51.874;8.430;2022-11-15T02:50:42;100114.19;;;10.51;91.43
4576;BME280;2300;51.874;8.430;2022-11-15T02:53:09;100118.34;;;10.53;91.40
4576;BME280;2300;51.874;8.430;2022-11-15T02:55:37;100102.13;;;10.52;91.45
4576;BME280;2300;51.874;8.430;2022-11-15T02:58:23;100114.84;;;10.58;91.48
4576;BME280;2300;51.874;8.430;2022-11-15T03:00:58;100107.44;;;10.58;91.71
4576;BME280;2300;51.874;8.430;2022-11-15T03:03:56;100102.22;;;10.57;91.40
4576;BME280;2300;51.874;8.430;2022-11-15T03:06:32;100096.03;;;10.50;91.49
4576;BME280;2300;51.874;8.430;2022-11-15T03:09:08;100106.59;;;10.58;91.91
4576;BME280;2300;51.874;8.430;2022-11-15T03:11:39;100104.47;;;10.60;91.48
4576;BME280;2300;51.874;8.430;2022-11-15T03:14:15;100095.81;;;10.68;91.35
4576;BME280;2300;51.874;8.430;2022-11-15T03:16:49;100101.13;;;10.58;92.09
4576;BME280;2300;51.874;8.430;2022-11-15T03:19:24;100111.38;;;10.62;91.66
4576;BME280;2300;51.874;8.430;2022-11-15T03:21:53;100103.88;;;10.58;92.10
4576;BME280;2300;51.874;8.430;2022-11-15T03:24:22;100102.88;;;10.64;92.16
4576;BME280;2300;51.874;8.430;2022-11-15T03:26:51;100095.09;;;10.72;92.26
4576;BME280;2300;51.874;8.430;2022-11-15T03:29:22;100100.91;;;10.76;91.81
4576;BME280;2300;51.874;8.430;2022-11-15T03:31:56;100099.25;;;10.75;92.58
4576;BME280;2300;51.874;8.430;2022-11-15T03:34:30;100098.66;;;10.73;92.47
4576;BME280;2300;51.874;8.430;2022-11-15T03:36:58;100094.16;;;10.67;92.86
4576;BME280;2300;51.874;8.430;2022-11-15T03:39:26;100089.56;;;10.56;92.50
4576;BME280;2300;51.874;8.430;2022-11-15T03:41:59;100085.75;;;10.57;92.54
4576;BME280;2300;51.874;8.430;2022-11-15T03:44:36;100092.41;;;10.61;92.62
4576;BME280;2300;51.874;8.430;2022-11-15T03:47:08;100103.16;;;10.62;92.90
4576;BME280;2300;51.874;8.430;2022-11-15T03:49:42;100100.41;;;10.62;93.16
4576;BME280;2300;51.874;8.430;2022-11-15T03:52:10;100105.63;;;10.64;92.85
4576;BME280;2300;51.874;8.430;2022-11-15T03:54:47;100104.66;;;10.70;92.83
4576;BME280;2300;51.874;8.430;2022-11-15T03:57:14;100097.00;;;10.72;92.46
4576;BME280;2300;51.874;8.430;2022-11-15T03:59:40;100105.06;;;10.78;92.88
4576;BME280;2300;51.874;8.430;2022-11-15T04:02:07;100104.22;;;10.78;92.55
4576;BME280;2300;51.874;8.430;2022-11-15T04:04:33;100094.34;;;10.77;92.37
4576;BME280;2300;51.874;8.430;2022-11-15T04:07:01;100097.66;;;10.79;92.19
4576;BME280;2300;51.874;8.430;2022-11-15T04:09:28;100101.25;;;10.79;92.69
4576;BME280;2300;51.874;8.430;2022-11-15T04:11:54;100099.84;;;10.77;92.85
4576;BME280;2300;51.874;8.430;2022-11-15T04:14:21;100096.50;;;10.75;92.48
4576;BME280;2300;51.874;8.430;2022-11-15T04:16:47;100095.00;;;10.67;92.58
4576;BME280;2300;51.874;8.430;2022-11-15T04:19:14;100090.81;;;10.65;93.28
4576;BME280;2300;51.874;8.430;2022-11-15T04:21:58;100087.66;;;10.73;92.88
4576;BME280;2300;51.874;8.430;2022-11-15T04:24:43;100097.19;;;10.82;92.51
4576;BME280;2300;51.874;8.430;2022-11-15T04:27:10;100095.34;;;10.71;92.30
4576;BME280;2300;51.874;8.430;2022-11-15T04:29:38;100100.13;;;10.64;92.70
4576;BME280;2300;51.874;8.430;2022-11-15T04:32:06;100107.91;;;10.67;93.22
4576;BME280;2300;51.874;8.430;2022-11-15T04:34:32;100089.75;;;10.66;92.47
4576;BME280;2300;51.874;8.430;2022-11-15T04:36:59;100102.50;;;10.72;92.64
4576;BME280;2300;51.874;8.430;2022-11-15T04:39:37;100107.81;;;10.62;92.94
4576;BME280;2300;51.874;8.430;2022-11-15T04:42:05;100105.16;;;10.67;93.05
4576;BME280;2300;51.874;8.430;2022-11-15T04:44:31;100106.03;;;10.56;93.13
4576;BME280;2300;51.874;8.430;2022-11-15T04:46:58;100105.91;;;10.62;93.20
4576;BME280;2300;51.874;8.430;2022-11-15T04:49:24;100102.31;;;10.62;93.40
4576;BME280;2300;51.874;8.430;2022-11-15T04:51:51;100101.81;;;10.65;92.96
4576;BME280;2300;51.874;8.430;2022-11-15T04:54:17;100100.81;;;10.71;93.25
4576;BME280;2300;51.874;8.430;2022-11-15T04:56:44;100097.00;;;10.72;92.75
4576;BME280;2300;51.874;8.430;2022-11-15T04:59:12;100103.47;;;10.66;93.00
4576;BME280;2300;51.874;8.430;2022-11-15T05:01:38;100098.00;;;10.66;93.28
4576;BME280;2300;51.874;8.430;2022-11-15T05:04:05;100098.97;;;10.60;93.80
4576;BME280;2300;51.874;8.430;2022-11-15T05:06:47;100099.72;;;10.55;93.36
4576;BME280;2300;51.874;8.430;2022-11-15T05:09:13;100101.22;;;10.63;93.52
4576;BME280;2300;51.874;8.430;2022-11-15T05:11:40;100100.13;;;10.64;93.41
4576;BME280;2300;51.874;8.430;2022-11-15T05:14:06;100092.50;;;10.66;93.40
4576;BME280;2300;51.874;8.430;2022-11-15T05:16:35;100100.72;;;10.66;93.96
4576;BME280;2300;51.874;8.430;2022-11-15T05:19:02;100101.06;;;10.69;93.64
4576;BME280;2300;51.874;8.430;2022-11-15T05:21:29;100098.16;;;10.76;93.66
4576;BME280;2300;51.874;8.430;2022-11-15T05:23:55;100103.56;;;10.71;93.76
4576;BME280;2300;51.874;8.430;2022-11-15T05:26:22;100101.41;;;10.73;93.54
4576;BME280;2300;51.874;8.430;2022-11-15T05:28:52;100098.91;;;10.71;93.74
4576;BME280;2300;51.874;8.430;2022-11-15T05:31:19;100097.56;;;10.74;93.64
4576;BME280;2300;51.874;8.430;2022-11-15T05:33:49;100090.69;;;10.71;93.63
4576;BME280;2300;51.874;8.430;2022-11-15T05:36:20;100086.94;;;10.77;93.13
4576;BME280;2300;51.874;8.430;2022-11-15T05:38:48;100086.13;;;10.77;93.18
4576;BME280;2300;51.874;8.430;2022-11-15T05:41:17;100086.03;;;10.72;93.37
4576;BME280;2300;51.874;8.430;2022-11-15T05:43:46;100078.34;;;10.74;93.42
4576;BME280;2300;51.874;8.430;2022-11-15T05:46:14;100075.38;;;10.75;93.18
4576;BME280;2300;51.874;8.430;2022-11-15T05:48:43;100085.38;;;10.81;92.61
4576;BME280;2300;51.874;8.430;2022-11-15T05:54:31;100081.78;;;10.81;92.92
4576;BME280;2300;51.874;8.430;2022-11-15T05:56:58;100082.16;;;10.73;92.86
4576;BME280;2300;51.874;8.430;2022-11-15T05:59:25;100083.09;;;10.78;92.74
4576;BME280;2300;51.874;8.430;2022-11-15T06:01:54;100078.34;;;10.74;93.18
4576;BME280;2300;51.874;8.430;2022-11-15T06:04:20;100075.19;;;10.65;93.13
4576;BME280;2300;51.874;8.430;2022-11-15T06:06:48;100076.69;;;10.73;93.21
4576;BME280;2300;51.874;8.430;2022-11-15T06:09:15;100074.84;;;10.78;92.67
4576;BME280;2300;51.874;8.430;2022-11-15T06:11:41;100078.94;;;10.76;92.82
4576;BME280;2300;51.874;8.430;2022-11-15T06:14:08;100080.34;;;10.78;92.90
4576;BME280;2300;51.874;8.430;2022-11-15T06:16:34;100076.75;;;10.78;93.23
4576;BME280;2300;51.874;8.430;2022-11-15T06:19:01;100083.94;;;10.79;93.16
4576;BME280;2300;51.874;8.430;2022-11-15T06:21:28;100076.63;;;10.84;92.96
4576;BME280;2300;51.874;8.430;2022-11-15T06:23:56;100084.19;;;10.94;92.87
4576;BME280;2300;51.874;8.430;2022-11-15T06:26:22;100079.59;;;11.00;92.59
4576;BME280;2300;51.874;8.430;2022-11-15T06:28:49;100090.88;;;10.98;92.19
4576;BME280;2300;51.874;8.430;2022-11-15T06:31:15;100082.13;;;11.01;92.22
4576;BME280;2300;51.874;8.430;2022-11-15T06:33:42;100087.47;;;11.08;92.41
4576;BME280;2300;51.874;8.430;2022-11-15T06:36:10;100093.50;;;11.10;92.24
4576;BME280;2300;51.874;8.430;2022-11-15T06:38:39;100079.97;;;11.03;91.83
4576;BME280;2300;51.874;8.430;2022-11-15T06:41:08;100094.78;;;11.19;91.89
4576;BME280;2300;51.874;8.430;2022-11-15T06:43:35;100099.53;;;11.23;91.73
4576;BME280;2300;51.874;8.430;2022-11-15T06:46:04;100089.38;;;11.24;91.39
4576;BME280;2300;51.874;8.430;2022-11-15T06:48:32;100092.69;;;11.26;92.01
4576;BME280;2300;51.874;8.430;2022-11-15T06:51:01;100101.84;;;11.32;91.68
4576;BME280;2300;51.874;8.430;2022-11-15T06:53:29;100103.00;;;11.36;91.31
4576;BME280;2300;51.874;8.430;2022-11-15T06:55:58;100100.06;;;11.42;90.98
4576;BME280;2300;51.874;8.430;2022-11-15T06:58:27;100115.81;;;11.47;90.87
4576;BME280;2300;51.874;8.430;2022-11-15T07:00:57;100103.50;;;11.49;90.90
4576;BME280;2300;51.874;8.430;2022-11-15T07:03:24;100113.22;;;11.57;90.50
4576;BME280;2300;51.874;8.430;2022-11-15T07:05:52;100118.16;;;11.55;90.27
4576;BME280;2300;51.874;8.430;2022-11-15T07:08:19;100096.50;;;11.42;90.46
4576;BME280;2300;51.874;8.430;2022-11-15T07:10:45;100122.06;;;11.59;90.31
4576;BME280;2300;51.874;8.430;2022-11-15T07:13:12;100125.63;;;11.59;90.47
4576;BME280;2300;51.874;8.430;2022-11-15T07:15:40;100117.38;;;11.59;90.23
4576;BME280;2300;51.874;8.430;2022-11-15T07:18:06;100123.47;;;11.61;90.45
4576;BME280;2300;51.874;8.430;2022-11-15T07:20:33;100128.50;;;11.64;90.31
4576;BME280;2300;51.874;8.430;2022-11-15T07:23:00;100124.72;;;11.71;90.27
4576;BME280;2300;51.874;8.430;2022-11-15T07:25:27;100136.66;;;11.76;89.80
4576;BME280;2300;51.874;8.430;2022-11-15T07:27:54;100134.44;;;11.78;89.82
4576;BME280;2300;51.874;8.430;2022-11-15T07:30:21;100130.63;;;11.79;89.70
4576;BME280;2300;51.874;8.430;2022-11-15T07:32:53;100138.94;;;11.84;89.79
4576;BME280;2300;51.874;8.430;2022-11-15T07:35:20;100135.66;;;11.87;89.44
4576;BME280;2300;51.874;8.430;2022-11-15T07:37:53;100134.59;;;11.88;89.38
4576;BME280;2300;51.874;8.430;2022-11-15T07:40:20;100124.53;;;11.77;89.79
4576;BME280;2300;51.874;8.430;2022-11-15T07:42:46;100131.59;;;11.90;89.54
4576;BME280;2300;51.874;8.430;2022-11-15T07:45:19;100142.91;;;11.93;89.61
4576;BME280;2300;51.874;8.430;2022-11-15T07:47:46;100136.03;;;11.91;89.51
4576;BME280;2300;51.874;8.430;2022-11-15T07:50:14;100131.56;;;12.06;89.56
4576;BME280;2300;51.874;8.430;2022-11-15T07:52:41;100129.69;;;12.12;89.14
4576;BME280;2300;51.874;8.430;2022-11-15T07:55:08;100123.47;;;12.00;89.11
4576;BME280;2300;51.874;8.430;2022-11-15T07:57:34;100129.13;;;12.10;88.93
4576;BME280;2300;51.874;8.430;2022-11-15T08:00:02;100120.66;;;12.17;88.94
4576;BME280;2300;51.874;8.430;2022-11-15T08:02:29;100137.44;;;12.37;88.56
4576;BME280;2300;51.874;8.430;2022-11-15T08:04:55;100131.63;;;12.60;88.11
4576;BME280;2300;51.874;8.430;2022-11-15T08:07:23;100134.31;;;12.55;87.47
4576;BME280;2300;51.874;8.430;2022-11-15T08:09:50;100126.63;;;12.57;87.17
4576;BME280;2300;51.874;8.430;2022-11-15T08:12:16;100130.28;;;12.63;86.95
4576;BME280;2300;51.874;8.430;2022-11-15T08:14:43;100128.63;;;12.62;86.67
4576;BME280;2300;51.874;8.430;2022-11-15T08:17:09;100127.28;;;12.64;86.85
4576;BME280;2300;51.874;8.430;2022-11-15T08:19:36;100125.84;;;12.62;86.59
4576;BME280;2300;51.874;8.430;2022-11-15T08:22:02;100124.56;;;12.69;86.93
4576;BME280;2300;51.874;8.430;2022-11-15T08:24:30;100123.69;;;12.64;86.51
4576;BME280;2300;51.874;8.430;2022-11-15T08:26:57;100121.53;;;12.71;86.31
4576;BME280;2300;51.874;8.430;2022-11-15T08:29:23;100111.34;;;12.71;85.61
4576;BME280;2300;51.874;8.430;2022-11-15T08:31:50;100122.09;;;12.94;85.65
4576;BME280;2300;51.874;8.430;2022-11-15T08:34:16;100123.63;;;13.12;85.06
4576;BME280;2300;51.874;8.430;2022-11-15T08:36:43;100117.38;;;13.27;84.49
4576;BME280;2300;51.874;8.430;2022-11-15T08:39:10;100119.41;;;13.36;84.00
4576;BME280;2300;51.874;8.430;2022-11-15T08:41:39;100116.38;;;13.38;83.71
4576;BME280;2300;51.874;8.430;2022-11-15T08:44:05;100117.53;;;13.42;83.31
4576;BME280;2300;51.874;8.430;2022-11-15T08:46:32;100118.66;;;13.46;83.48
4576;BME280;2300;51.874;8.430;2022-11-15T08:48:58;100121.53;;;13.61;82.81
4576;BME280;2300;51.874;8.430;2022-11-15T08:51:25;100113.00;;;13.63;82.41
4576;BME280;2300;51.874;8.430;2022-11-15T08:53:51;100117.25;;;13.86;82.24
4576;BME280;2300;51.874;8.430;2022-11-15T08:56:18;100120.56;;;13.88;81.16
4576;BME280;2300;51.874;8.430;2022-11-15T08:58:46;100114.56;;;14.01;80.59
4576;BME280;2300;51.874;8.430;2022-11-15T09:01:18;100119.91;;;14.17;80.27
4576;BME280;2300;51.874;8.430;2022-11-15T09:03:45;100119.09;;;14.22;79.81
4576;BME280;2300;51.874;8.430;2022-11-15T09:06:12;100120.56;;;14.40;79.24
4576;BME280;2300;51.874;8.430;2022-11-15T09:08:38;100116.69;;;14.46;78.99
4576;BME280;2300;51.874;8.430;2022-11-15T09:11:05;100109.81;;;14.48;77.86
4576;BME280;2300;51.874;8.430;2022-11-15T09:13:32;100118.13;;;14.58;78.31
4576;BME280;2300;51.874;8.430;2022-11-15T09:16:00;100118.13;;;14.63;77.73
4576;BME280;2300;51.874;8.430;2022-11-15T09:18:27;100117.84;;;14.50;77.97
4576;BME280;2300;51.874;8.430;2022-11-15T09:20:55;100123.63;;;14.53;76.85
4576;BME280;2300;51.874;8.430;2022-11-15T09:23:23;100129.44;;;14.62;78.15
4576;BME280;2300;51.874;8.430;2022-11-15T09:25:49;100122.53;;;14.49;76.59
4576;BME280;2300;51.874;8.430;2022-11-15T09:28:16;100123.63;;;14.53;77.14
4576;BME280;2300;51.874;8.430;2022-11-15T09:30:43;100120.03;;;14.48;76.86
4576;BME280;2300;51.874;8.430;2022-11-15T09:33:12;100119.81;;;14.64;76.60
4576;BME280;2300;51.874;8.430;2022-11-15T09:35:38;100116.22;;;14.79;76.05
4576;BME280;2300;51.874;8.430;2022-11-15T09:38:06;100121.47;;;14.76;74.77
4576;BME280;2300;51.874;8.430;2022-11-15T09:40:35;100111.53;;;14.85;74.30
4576;BME280;2300;51.874;8.430;2022-11-15T09:43:19;100110.13;;;14.77;73.10
4576;BME280;2300;51.874;8.430;2022-11-15T09:45:58;100112.91;;;14.82;72.17
4576;BME280;2300;51.874;8.430;2022-11-15T09:48:50;100118.75;;;15.01;72.03
4576;BME280;2300;51.874;8.430;2022-11-15T09:51:25;100114.88;;;15.02;70.88
4576;BME280;2300;51.874;8.430;2022-11-15T09:53:58;100114.31;;;14.90;70.22
4576;BME280;2300;51.874;8.430;2022-11-15T09:56:27;100113.22;;;15.01;71.15
4576;BME280;2300;51.874;8.430;2022-11-15T09:59:11;100108.22;;;14.88;70.57
4576;BME280;2300;51.874;8.430;2022-11-15T10:01:45;100105.19;;;14.89;69.40
4576;BME280;2300;51.874;8.430;2022-11-15T10:04:17;100113.22;;;14.96;70.16
4576;BME280;2300;51.874;8.430;2022-11-15T10:06:49;100109.34;;;15.02;69.70
4576;BME280;2300;51.874;8.430;2022-11-15T10:09:23;100103.56;;;15.08;69.35
4576;BME280;2300;51.874;8.430;2022-11-15T10:11:51;100099.66;;;14.99;69.07
4576;BME280;2300;51.874;8.430;2022-11-15T10:14:19;100086.09;;;14.98;69.16
4576;BME280;2300;51.874;8.430;2022-11-15T10:17:06;100096.38;;;14.97;68.99
4576;BME280;2300;51.874;8.430;2022-11-15T10:19:45;100085.84;;;14.89;68.06
4576;BME280;2300;51.874;8.430;2022-11-15T10:22:25;100086.09;;;14.93;67.90
4576;BME280;2300;51.874;8.430;2022-11-15T10:25:06;100073.94;;;14.94;67.67
4576;BME280;2300;51.874;8.430;2022-11-15T10:27:36;100075.34;;;15.06;68.11
4576;BME280;2300;51.874;8.430;2022-11-15T10:30:11;100071.22;;;15.19;68.29
4576;BME280;2300;51.874;8.430;2022-11-15T10:32:39;100068.16;;;14.85;67.54
4576;BME280;2300;51.874;8.430;2022-11-15T10:35:19;100060.44;;;14.92;68.01
4576;BME280;2300;51.874;8.430;2022-11-15T10:37:46;100061.22;;;15.03;67.96
4576;BME280;2300;51.874;8.430;2022-11-15T10:40:17;100049.91;;;14.84;68.09
4576;BME280;2300;51.874;8.430;2022-11-15T10:42:43;100049.34;;;14.72;69.43
4576;BME280;2300;51.874;8.430;2022-11-15T10:45:23;100052.94;;;14.88;69.07
4576;BME280;2300;51.874;8.430;2022-11-15T10:47:50;100043.56;;;15.09;67.77
4576;BME280;2300;51.874;8.430;2022-11-15T10:50:30;100044.13;;;15.11;67.59
4576;BME280;2300;51.874;8.430;2022-11-15T10:52:57;100031.13;;;15.17;68.26
4576;BME280;2300;51.874;8.430;2022-11-15T10:55:27;100031.34;;;15.45;68.13
4576;BME280;2300;51.874;8.430;2022-11-15T10:57:58;100020.34;;;15.15;67.33
4576;BME280;2300;51.874;8.430;2022-11-15T11:00:29;100011.50;;;15.23;67.89
4576;BME280;2300;51.874;8.430;2022-11-15T11:02:58;100005.69;;;15.15;68.76
4576;BME280;2300;51.874;8.430;2022-11-15T11:05:29;100025.03;;;15.04;68.71
4576;BME280;2300;51.874;8.430;2022-11-15T11:07:58;100018.66;;;15.04;69.08
4576;BME280;2300;51.874;8.430;2022-11-15T11:10:27;100015.63;;;15.26;69.25
4576;BME280;2300;51.874;8.430;2022-11-15T11:12:54;100018.38;;;15.31;68.92
4576;BME280;2300;51.874;8.430;2022-11-15T11:15:22;100019.50;;;15.25;68.22
4576;BME280;2300;51.874;8.430;2022-11-15T11:17:58;100010.34;;;15.39;68.48
4576;BME280;2300;51.874;8.430;2022-11-15T11:20:35;100013.88;;;15.55;68.18
4576;BME280;2300;51.874;8.430;2022-11-15T11:23:18;100010.88;;;15.46;68.33
4576;BME280;2300;51.874;8.430;2022-11-15T11:25:55;100000.09;;;15.40;68.31
4576;BME280;2300;51.874;8.430;2022-11-15T11:28:33;100006.00;;;15.13;68.27
4576;BME280;2300;51.874;8.430;2022-11-15T11:31:13;99995.72;;;15.24;68.62
4576;BME280;2300;51.874;8.430;2022-11-15T11:33:49;99986.06;;;15.21;68.81
4576;BME280;2300;51.874;8.430;2022-11-15T11:36:25;99976.59;;;15.42;67.73
4576;BME280;2300;51.874;8.430;2022-11-15T11:38:58;99968.63;;;15.26;66.64
4576;BME280;2300;51.874;8.430;2022-11-15T11:41:43;99957.28;;;15.27;65.91
4576;BME280;2300;51.874;8.430;2022-11-15T11:44:24;99963.88;;;15.36;65.76
4576;BME280;2300;51.874;8.430;2022-11-15T11:46:56;99966.06;;;15.39;65.82
4576;BME280;2300;51.874;8.430;2022-11-15T11:49:31;99950.09;;;15.26;65.74
4576;BME280;2300;51.874;8.430;2022-11-15T11:52:03;99953.69;;;15.27;65.90
4576;BME280;2300;51.874;8.430;2022-11-15T11:54:39;99932.13;;;14.98;65.72
4576;BME280;2300;51.874;8.430;2022-11-15T11:57:14;99951.44;;;15.29;65.96
4576;BME280;2300;51.874;8.430;2022-11-15T11:59:49;99935.19;;;15.12;65.50
4576;BME280;2300;51.874;8.430;2022-11-15T12:02:18;99946.53;;;15.11;65.60
4576;BME280;2300;51.874;8.430;2022-11-15T12:04:50;99946.25;;;15.07;66.37
4576;BME280;2300;51.874;8.430;2022-11-15T12:07:23;99937.94;;;15.22;66.19
4576;BME280;2300;51.874;8.430;2022-11-15T12:09:55;99926.81;;;15.37;66.64
4576;BME280;2300;51.874;8.430;2022-11-15T12:12:28;99924.13;;;15.22;66.21
4576;BME280;2300;51.874;8.430;2022-11-15T12:15:00;99924.09;;;15.27;65.19
4576;BME280;2300;51.874;8.430;2022-11-15T12:17:29;99929.00;;;15.40;64.77
4576;BME280;2300;51.874;8.430;2022-11-15T12:19:58;99923.25;;;15.32;64.50
4576;BME280;2300;51.874;8.430;2022-11-15T12:22:34;99937.03;;;15.42;64.18
4576;BME280;2300;51.874;8.430;2022-11-15T12:25:07;99935.09;;;15.47;64.63
4576;BME280;2300;51.874;8.430;2022-11-15T12:27:37;99926.22;;;15.50;64.89
4576;BME280;2300;51.874;8.430;2022-11-15T12:30:11;99924.00;;;15.47;64.37
4576;BME280;2300;51.874;8.430;2022-11-15T12:32:40;99920.69;;;15.45;64.25
4576;BME280;2300;51.874;8.430;2022-11-15T12:35:23;99926.50;;;15.49;64.65
4576;BME280;2300;51.874;8.430;2022-11-15T12:37:53;99914.69;;;15.33;64.85
4576;BME280;2300;51.874;8.430;2022-11-15T12:40:33;99910.19;;;15.47;64.45
4576;BME280;2300;51.874;8.430;2022-11-15T12:46:02;99904.88;;;15.56;64.31
4576;BME280;2300;51.874;8.430;2022-11-15T12:48:59;99905.16;;;15.60;63.37
4576;BME280;2300;51.874;8.430;2022-11-15T12:54:52;99894.44;;;15.43;63.18
4576;BME280;2300;51.874;8.430;2022-11-15T12:57:28;99881.72;;;15.42;63.38
4576;BME280;2300;51.874;8.430;2022-11-15T12:59:57;99881.41;;;15.48;62.21
4576;BME280;2300;51.874;8.430;2022-11-15T13:02:27;99886.16;;;15.38;60.80
4576;BME280;2300;51.874;8.430;2022-11-15T13:05:49;99871.81;;;15.26;60.46
4576;BME280;2300;51.874;8.430;2022-11-15T13:08:07;99875.44;;;15.21;60.52
4576;BME280;2300;51.874;8.430;2022-11-15T13:10:35;99879.28;;;15.25;59.87
4576;BME280;2300;51.874;8.430;2022-11-15T13:13:03;99866.06;;;15.17;60.07
4576;BME280;2300;51.874;8.430;2022-11-15T13:15:38;99876.78;;;15.24;59.73
4576;BME280;2300;51.874;8.430;2022-11-15T13:18:26;99871.78;;;15.36;59.57
4576;BME280;2300;51.874;8.430;2022-11-15T13:20:54;99869.00;;;15.36;60.69
4576;BME280;2300;51.874;8.430;2022-11-15T13:23:21;99866.50;;;15.39;60.25
4576;BME280;2300;51.874;8.430;2022-11-15T13:26:06;99864.31;;;15.36;59.40
4576;BME280;2300;51.874;8.430;2022-11-15T13:28:37;99857.03;;;15.50;59.92
4576;BME280;2300;51.874;8.430;2022-11-15T13:31:20;99864.69;;;15.69;59.46
4576;BME280;2300;51.874;8.430;2022-11-15T13:33:47;99851.38;;;15.71;59.98
4576;BME280;2300;51.874;8.430;2022-11-15T13:36:16;99857.25;;;15.64;59.55
4576;BME280;2300;51.874;8.430;2022-11-15T13:38:44;99867.00;;;15.52;59.18
4576;BME280;2300;51.874;8.430;2022-11-15T13:41:23;99854.06;;;15.42;58.86
4576;BME280;2300;51.874;8.430;2022-11-15T13:43:51;99847.06;;;15.55;58.40